Time;durP1;ratioP1;P1;durP2;ratioP2;P2;SDS_P1;SDS_P2;PMS_P1;PMS_P2;Temp;Humidity;BMP_temperature;BMP_pressure;BME280_temperature;BME280_humidity;BME280_pressure;Samples;Min_cycle;Max_cycle;Signal;HPM_P1;HPM_P2
2022/02/03 00:00:47;;;;;;;23.95;9.57;;;103.20;2227.20;;;;;;4909715;29;20035;-76
2022/02/03 00:05:56;;;;;;;33.50;11.57;;;103.20;2227.20;;;;;;4909228;29;20442;-79
2022/02/03 00:24:52;;;;;;;35.08;14.35;;;103.00;2227.20;;;;;;4909412;29;20024;-78
2022/02/03 00:30:07;;;;;;;26.13;9.90;;;103.00;2227.20;;;;;;4909697;29;20028;-78
2022/02/03 00:48:42;;;;;;;65.95;21.15;;;103.00;2227.20;;;;;;4909444;29;20321;-79
2022/02/03 00:51:09;;;;;;;47.53;16.53;;;103.20;2227.20;;;;;;4892114;29;20533;-78
2022/02/03 00:53:36;;;;;;;36.35;13.77;;;103.10;2227.20;;;;;;4909200;29;20441;-78
2022/02/03 00:56:26;;;;;;;42.72;15.18;;;103.30;2227.20;;;;;;4907844;29;20461;-78
2022/02/03 00:59:04;;;;;;;36.10;12.55;;;103.20;2227.20;;;;;;4892410;29;20031;-76
2022/02/03 01:01:33;;;;;;;21.23;8.75;;;103.20;2227.20;;;;;;4890245;29;20111;-78
2022/02/03 01:04:09;;;;;;;23.20;6.38;;;103.20;2227.20;;;;;;4907999;29;20103;-78
2022/02/03 01:06:39;;;;;;;17.80;6.60;;;128.00;2252.80;;;;;;4908659;29;20028;-77
2022/02/03 01:09:08;;;;;;;22.63;8.35;;;128.10;2252.80;;;;;;4905802;29;20477;-78
2022/02/03 01:11:41;;;;;;;24.27;10.07;;;128.10;2252.80;;;;;;4891591;29;20370;-76
2022/02/03 01:14:16;;;;;;;20.02;8.23;;;103.30;2227.20;;;;;;4908484;29;20027;-76
2022/02/03 01:44:01;;;;;;;12.75;4.05;;;103.10;2227.20;;;;;;4837205;29;20037;-78
2022/02/03 01:46:49;;;;;;;16.52;4.13;;;103.10;2227.20;;;;;;4838437;29;20121;-78
2022/02/03 01:49:18;;;;;;;10.30;4.18;;;103.00;2227.20;;;;;;4854383;29;20534;-76
2022/02/03 01:51:56;;;;;;;9.52;3.67;;;103.00;2227.20;;;;;;4839859;29;20054;-77
2022/02/03 01:54:29;;;;;;;11.73;3.50;;;102.90;2227.20;;;;;;4837612;29;20117;-77
2022/02/03 01:57:10;;;;;;;12.48;5.30;;;102.90;2227.20;;;;;;4839308;29;20081;-77
2022/02/03 01:59:37;;;;;;;20.75;4.25;;;102.80;2227.20;;;;;;4856427;29;20112;-78
2022/02/03 02:02:05;;;;;;;13.98;4.20;;;102.70;2227.20;;;;;;4906885;29;20557;-79
2022/02/03 02:04:42;;;;;;;14.00;4.05;;;102.70;2227.20;;;;;;4907766;29;20123;-77
2022/02/03 02:07:30;;;;;;;17.52;4.65;;;102.80;2227.20;;;;;;4906499;29;20020;-79
2022/02/03 02:13:09;;;;;;;10.20;4.28;;;102.70;2227.20;;;;;;4908313;29;20059;-78
2022/02/03 02:43:42;;;;;;;16.00;3.30;;;102.70;2227.20;;;;;;4909639;29;20035;-75
2022/02/03 02:46:46;;;;;;;12.85;3.17;;;102.70;2227.20;;;;;;4841655;29;20144;-76
2022/02/03 02:49:26;;;;;;;9.75;3.72;;;102.70;2227.20;;;;;;4787576;30;20063;-76
2022/02/03 02:52:11;;;;;;;10.35;3.33;;;77.60;2227.20;;;;;;4773055;30;20038;-79
2022/02/03 02:54:57;;;;;;;8.23;3.33;;;102.60;2227.20;;;;;;4773571;30;20031;-79
2022/02/03 03:36:08;;;;;;;8.43;2.55;;;102.50;2227.20;;;;;;4910814;29;20027;-77
2022/02/03 03:38:36;;;;;;;13.65;3.15;;;102.50;2227.20;;;;;;4910235;29;20822;-78
2022/02/03 03:41:03;;;;;;;10.90;3.10;;;102.80;2227.20;;;;;;4894080;29;20052;-80
2022/02/03 03:43:36;;;;;;;15.02;4.15;;;102.90;2227.20;;;;;;4909557;29;20052;-76
2022/02/03 03:46:26;;;;;;;14.65;4.25;;;103.00;2227.20;;;;;;4910030;29;20024;-79
2022/02/03 03:49:10;;;;;;;18.13;7.55;;;103.00;2227.20;;;;;;4902005;29;20052;-78
2022/02/03 03:51:57;;;;;;;28.55;12.13;;;103.10;2227.20;;;;;;4912768;29;20032;-76
2022/02/03 03:57:11;;;;;;;47.10;18.17;;;103.30;2227.20;;;;;;4908068;29;20033;-76
2022/02/03 05:02:58;;;;;;;11.25;4.40;;;103.00;2227.20;;;;;;4840704;29;20602;-78
2022/02/03 05:11:52;;;;;;;15.07;5.35;;;103.20;2227.20;;;;;;4822149;29;20157;-77
2022/02/03 05:20:36;;;;;;;13.13;6.55;;;103.30;2227.20;;;;;;4813736;29;20026;-78
2022/02/03 05:23:41;;;;;;;21.88;6.75;;;103.20;2227.20;;;;;;4814372;29;20034;-76
2022/02/03 05:26:53;;;;;;;12.20;4.68;;;103.20;2227.20;;;;;;4814308;29;20030;-76
2022/02/03 05:32:44;;;;;;;17.15;4.13;;;103.20;2227.20;;;;;;4813492;29;20034;-78
2022/02/03 05:44:46;;;;;;;29.83;9.68;;;103.10;2227.20;;;;;;4889508;29;20516;-78
2022/02/03 06:13:43;;;;;;;23.65;10.65;;;128.00;2252.80;;;;;;4878771;29;20546;-79
2022/02/03 06:21:31;;;;;;;27.75;13.13;;;128.00;2252.80;;;;;;4887967;29;20068;-79
2022/02/03 06:24:16;;;;;;;25.65;12.18;;;128.10;2252.80;;;;;;4888693;29;20384;-78
2022/02/03 06:29:30;;;;;;;26.77;11.77;;;128.20;2252.80;;;;;;4897075;29;20044;-78
2022/02/03 06:31:57;;;;;;;40.40;19.00;;;128.20;2252.80;;;;;;4880071;29;20052;-77
2022/02/03 06:34:23;;;;;;;15.25;8.98;;;128.20;2252.80;;;;;;4880606;29;20040;-78
2022/02/03 06:36:52;;;;;;;14.63;9.68;;;128.30;2252.80;;;;;;4897667;29;20024;-75
2022/02/03 06:39:24;;;;;;;11.60;8.00;;;128.30;2252.80;;;;;;4907596;29;20083;-76
2022/02/03 06:41:54;;;;;;;15.52;9.73;;;128.20;2252.80;;;;;;4916364;29;20034;-76
2022/02/03 06:44:26;;;;;;;32.67;20.88;;;128.10;2252.80;;;;;;4899387;29;20020;-77
2022/02/03 06:46:54;;;;;;;26.35;13.05;;;103.30;2227.20;;;;;;4916238;29;20036;-76
2022/02/03 06:52:01;;;;;;;16.58;7.45;;;103.30;2227.20;;;;;;4916072;29;20035;-76
2022/02/03 06:57:18;;;;;;;19.70;11.18;;;103.20;2227.20;;;;;;4916124;29;20405;-79
2022/02/03 06:59:58;;;;;;;17.95;8.07;;;103.10;2227.20;;;;;;4914903;29;20032;-76
2022/02/03 07:02:27;;;;;;;12.02;7.13;;;103.10;2227.20;;;;;;4915971;29;20393;-76
2022/02/03 07:04:53;;;;;;;8.50;5.22;;;103.20;2227.20;;;;;;4899273;29;20054;-78
2022/02/03 07:07:19;;;;;;;12.70;5.50;;;103.20;2227.20;;;;;;4916139;29;20024;-79
2022/02/03 07:09:50;;;;;;;8.57;5.18;;;103.20;2227.20;;;;;;4914895;29;20119;-80
2022/02/03 07:12:17;;;;;;;12.27;6.80;;;103.20;2227.20;;;;;;4916054;29;20112;-78
2022/02/03 07:14:43;;;;;;;10.27;4.72;;;103.10;2227.20;;;;;;4915958;29;20028;-75
2022/02/03 07:17:08;;;;;;;12.73;4.65;;;103.20;2227.20;;;;;;4915706;29;20036;-78
2022/02/03 07:19:37;;;;;;;;;;;103.20;2227.20;;;;;;4916202;29;20116;-76
2022/02/03 07:22:03;;;;;;;11.38;4.47;;;103.20;2227.20;;;;;;4915846;29;19911;-78
2022/02/03 07:24:28;;;;;;;16.38;5.50;;;103.20;2227.20;;;;;;4915586;29;20047;-78
2022/02/03 07:26:54;;;;;;;;;;;103.20;2227.20;;;;;;4916359;29;20068;-77
2022/02/03 07:29:20;;;;;;;13.50;6.80;;;103.30;2227.20;;;;;;4917724;29;19915;-76
2022/02/03 07:31:45;;;;;;;;;;;103.30;2227.20;;;;;;4919872;29;20028;-76
2022/02/03 07:34:14;;;;;;;22.35;8.93;;;128.00;2252.80;;;;;;4919137;29;19914;-76
2022/02/03 07:36:42;;;;;;;14.63;7.72;;;103.30;2227.20;;;;;;4902162;29;20032;-75
2022/02/03 07:39:08;;;;;;;21.35;7.97;;;103.30;2227.20;;;;;;4918888;29;20040;-78
2022/02/03 07:41:34;;;;;;;17.83;7.38;;;103.20;2227.20;;;;;;4902172;29;20496;-76
2022/02/03 07:43:59;;;;;;;17.08;7.60;;;103.20;2227.20;;;;;;4918926;29;20123;-75
2022/02/03 07:46:25;;;;;;;15.20;6.82;;;103.30;2227.20;;;;;;4901971;29;20032;-76
2022/02/03 07:48:53;;;;;;;;;;;128.00;2252.80;;;;;;4918971;29;20036;-76
2022/02/03 07:51:19;;;;;;;;;;;103.30;2227.20;;;;;;4902377;29;19911;-76
2022/02/03 07:53:45;;;;;;;9.10;3.87;;;103.30;2227.20;;;;;;4918920;29;19911;-77
2022/02/03 07:56:11;;;;;;;13.60;5.63;;;103.30;2227.20;;;;;;4918544;29;20277;-76
2022/02/03 07:58:37;;;;;;;52.22;25.45;;;103.20;2227.20;;;;;;4901876;29;20111;-76
2022/02/03 08:01:03;;;;;;;33.78;16.77;;;103.20;2227.20;;;;;;4917232;29;20036;-76
2022/02/03 08:03:28;;;;;;;;;;;103.30;2227.20;;;;;;4919171;29;20056;-76
2022/02/03 08:06:02;;;;;;;13.25;5.35;;;103.30;2227.20;;;;;;4918447;29;19911;-75
2022/02/03 08:08:34;;;;;;;12.13;4.45;;;128.00;2252.80;;;;;;4918571;29;20030;-76
2022/02/03 08:11:05;;;;;;;12.48;4.82;;;103.20;2227.20;;;;;;4918602;29;20028;-76
2022/02/03 08:13:37;;;;;;;10.07;4.00;;;103.20;2227.20;;;;;;4901304;29;20084;-77
2022/02/03 08:16:14;;;;;;;16.45;5.15;;;103.20;2227.20;;;;;;4918797;29;20112;-80
2022/02/03 08:18:43;;;;;;;9.30;4.38;;;103.20;2227.20;;;;;;4918507;29;20028;-76
2022/02/03 08:21:12;;;;;;;11.45;4.75;;;103.20;2227.20;;;;;;4916993;29;20055;-75
2022/02/03 08:26:29;;;;;;;13.50;5.60;;;103.00;2227.20;;;;;;4918145;29;20032;-75
2022/02/03 08:29:14;;;;;;;11.82;6.47;;;103.10;2227.20;;;;;;4918591;29;20067;-77
2022/02/03 08:31:50;;;;;;;18.27;7.65;;;103.10;2227.20;;;;;;4901403;29;20043;-77
2022/02/03 08:34:22;;;;;;;15.13;5.55;;;103.10;2227.20;;;;;;4917982;29;20031;-75
2022/02/03 08:36:48;;;;;;;13.00;5.53;;;103.20;2227.20;;;;;;4918125;29;20032;-77
2022/02/03 08:39:18;;;;;;;;;;;103.10;2227.20;;;;;;4917853;29;20055;-76
2022/02/03 08:41:44;;;;;;;12.98;5.65;;;103.10;2227.20;;;;;;4916753;29;20287;-77
2022/02/03 08:44:10;;;;;;;12.75;6.60;;;103.00;2227.20;;;;;;4916537;29;20051;-77
2022/02/03 08:46:36;;;;;;;13.32;6.30;;;103.20;2227.20;;;;;;4916381;29;20037;-75
2022/02/03 08:49:05;;;;;;;;;;;103.20;2227.20;;;;;;4918548;29;20473;-75
2022/02/03 08:51:31;;;;;;;17.98;7.07;;;103.30;2227.20;;;;;;4917642;29;19911;-75
2022/02/03 08:54:04;;;;;;;;;;;128.20;2252.80;;;;;;4918273;29;20031;-78
2022/02/03 08:56:44;;;;;;;13.93;6.68;;;128.30;2252.80;;;;;;4916296;29;19914;-76
2022/02/03 09:40:19;;;;;;;15.80;5.75;;;179.20;2252.80;;;;;;4916842;29;20136;-80
2022/02/03 09:59:15;;;;;;;16.70;5.32;;;154.50;2252.80;;;;;;4916632;29;20560;-77
2022/02/03 10:01:52;;;;;;;12.98;5.07;;;179.20;2252.80;;;;;;4915482;29;20040;-75
2022/02/03 10:04:42;;;;;;;11.88;4.43;;;179.30;2252.80;;;;;;4916438;29;20384;-76
2022/02/03 10:07:15;;;;;;;8.70;4.35;;;179.50;2252.80;;;;;;4916323;29;20031;-75
2022/02/03 10:09:42;;;;;;;10.82;5.30;;;179.50;2252.80;;;;;;4916570;29;20051;-76
2022/02/03 10:12:09;;;;;;;11.27;4.85;;;179.70;2252.80;;;;;;4899490;29;20132;-77
2022/02/03 10:14:38;;;;;;;15.57;6.60;;;179.60;2252.80;;;;;;4916184;29;20040;-76
2022/02/03 10:17:06;;;;;;;14.25;5.82;;;179.80;2252.80;;;;;;4916385;29;20461;-77
2022/02/03 10:19:37;;;;;;;11.20;4.68;;;180.10;2252.80;;;;;;4899404;29;20082;-75
2022/02/03 10:22:22;;;;;;;14.30;5.53;;;179.70;2252.80;;;;;;4916367;29;20024;-75
2022/02/03 10:24:50;;;;;;;11.40;5.22;;;204.80;2252.80;;;;;;4916046;29;20042;-75
2022/02/03 10:27:22;;;;;;;14.10;5.97;;;205.10;2252.80;;;;;;4914811;29;20040;-76
2022/02/03 10:29:49;;;;;;;17.30;6.70;;;205.00;2201.60;;;;;;4916102;29;20048;-78
2022/02/03 10:32:15;;;;;;;15.35;5.93;;;205.10;2227.20;;;;;;4898972;29;20473;-76
2022/02/03 10:34:44;;;;;;;15.15;4.80;;;204.80;2227.20;;;;;;4899319;29;20064;-78
2022/02/03 10:40:07;;;;;;;19.90;8.07;;;205.50;2176.00;;;;;;4916281;29;20059;-75
2022/02/03 10:45:39;;;;;;;10.85;4.32;;;205.50;2176.00;;;;;;4916146;29;20075;-78
2022/02/03 10:58:46;;;;;;;17.25;6.75;;;204.80;2099.20;;;;;;4916067;29;20487;-76
2022/02/03 11:06:50;;;;;;;9.80;4.18;;;205.10;2176.00;;;;;;4920067;29;20512;-76
2022/02/03 11:09:29;;;;;;;9.20;4.22;;;205.60;2073.60;;;;;;4919438;29;20033;-75
2022/02/03 11:11:57;;;;;;;8.60;4.07;;;230.40;2048.00;;;;;;4919404;29;20024;-77
2022/02/03 11:14:24;;;;;;;10.30;3.60;;;230.60;1996.80;;;;;;4919259;29;20029;-75
2022/02/03 11:16:51;;;;;;;13.70;6.68;;;231.00;1945.60;;;;;;4919447;29;20396;-75
2022/02/03 11:19:26;;;;;;;12.15;5.72;;;231.20;1945.60;;;;;;4919116;29;20071;-76
2022/02/03 11:22:01;;;;;;;12.23;4.75;;;231.10;1945.60;;;;;;4902474;29;20036;-77
2022/02/03 11:24:31;;;;;;;11.93;5.00;;;231.30;1920.00;;;;;;4919271;29;20028;-76
2022/02/03 11:30:10;;;;;;;14.98;5.13;;;256.20;1868.80;;;;;;4919150;29;20039;-76
2022/02/03 11:32:52;;;;;;;19.92;4.55;;;256.20;1843.20;;;;;;4918901;29;20027;-76
2022/02/03 11:44:25;;;;;;;12.45;4.85;;;256.50;1843.20;;;;;;4879870;29;20522;-75
2022/02/03 11:48:13;;;;;;;12.68;5.47;;;281.70;1843.20;;;;;;4879459;29;20169;-75
2022/02/03 12:05:42;;;;;;;11.05;4.22;;;231.00;1843.20;;;;;;4879060;29;20033;-78
2022/02/03 12:19:50;;;;;;;10.05;4.80;;;281.60;1766.40;;;;;;4918182;29;20042;-76
2022/02/03 12:22:12;;;;;;;8.05;3.70;;;281.70;1689.60;;;;;;4908047;29;20033;-79
2022/02/03 12:25:09;;;;;;;12.32;4.40;;;281.60;1664.00;;;;;;4901495;29;20040;-74
2022/02/03 12:28:05;;;;;;;6.82;4.10;;;256.50;1715.20;;;;;;4916819;29;20040;-76
2022/02/03 12:30:51;;;;;;;14.30;5.53;;;256.60;1740.80;;;;;;4916755;29;20044;-75
2022/02/03 12:38:35;;;;;;;14.18;4.68;;;256.50;1740.80;;;;;;4918033;29;20180;-77
2022/02/03 12:41:13;;;;;;;14.20;5.38;;;231.20;1817.60;;;;;;4917860;29;20484;-76
2022/02/03 12:43:59;;;;;;;17.95;6.53;;;231.00;1868.80;;;;;;4900947;29;20091;-75
2022/02/03 12:46:26;;;;;;;13.40;5.45;;;231.10;1868.80;;;;;;4900324;29;20036;-75
2022/02/03 12:49:00;;;;;;;13.55;5.68;;;256.20;1843.20;;;;;;4917458;29;20040;-76
2022/02/03 12:51:28;;;;;;;12.80;6.07;;;256.20;1817.60;;;;;;4900808;29;20044;-75
2022/02/03 12:53:54;;;;;;;14.57;5.47;;;256.40;1792.00;;;;;;4917523;29;20047;-76
2022/02/03 12:56:25;;;;;;;11.30;5.03;;;281.70;1792.00;;;;;;4917702;29;20024;-75
2022/02/03 12:58:58;;;;;;;13.57;4.38;;;256.50;1740.80;;;;;;4917445;29;20030;-77
2022/02/03 13:01:36;;;;;;;13.50;4.63;;;256.40;1715.20;;;;;;4917471;29;20479;-75
2022/02/03 13:04:10;;;;;;;14.68;4.47;;;256.50;1715.20;;;;;;4900727;29;20429;-77
2022/02/03 13:06:40;;;;;;;13.00;4.40;;;256.50;1740.80;;;;;;4917379;29;20174;-75
2022/02/03 13:09:09;;;;;;;15.75;6.43;;;256.60;1715.20;;;;;;4900525;29;20072;-75
2022/02/03 13:11:41;;;;;;;21.02;5.70;;;256.80;1715.20;;;;;;4900449;29;20084;-76
2022/02/03 13:19:53;;;;;;;8.65;4.05;;;256.60;1689.60;;;;;;4917193;29;20134;-78
2022/02/03 13:33:14;;;;;;;18.98;8.32;;;231.10;1689.60;;;;;;4917247;29;20035;-75
2022/02/03 13:38:21;;;;;;;13.02;6.32;;;230.90;1715.20;;;;;;4916690;29;20028;-75
2022/02/03 13:40:47;;;;;;;9.05;4.70;;;230.60;1740.80;;;;;;4917018;29;20032;-75
2022/02/03 13:43:14;;;;;;;;;;;230.80;1740.80;;;;;;4916045;29;20536;-76
2022/02/03 13:45:44;;;;;;;10.48;4.45;;;230.80;1766.40;;;;;;4916743;29;19907;-80
2022/02/03 13:48:17;;;;;;;9.43;4.63;;;230.60;1792.00;;;;;;4916934;29;20504;-75
2022/02/03 13:50:58;;;;;;;11.00;4.25;;;230.50;1843.20;;;;;;4916544;29;20036;-75
2022/02/03 13:53:50;;;;;;;10.18;3.55;;;230.60;1894.40;;;;;;4916953;29;20016;-76
2022/02/03 14:21:20;;;;;;;11.18;3.67;;;230.60;1843.20;;;;;;4916592;29;20039;-78
2022/02/03 14:29:20;;;;;;;8.32;4.13;;;230.90;1920.00;;;;;;4916627;29;20548;-76
2022/02/03 14:31:53;;;;;;;9.68;4.82;;;230.90;1920.00;;;;;;4916129;29;20036;-76
2022/02/03 14:34:26;;;;;;;14.35;4.90;;;230.80;1920.00;;;;;;4916400;29;20025;-75
2022/02/03 14:37:01;;;;;;;8.88;4.50;;;230.80;1920.00;;;;;;4917151;29;20046;-75
2022/02/03 14:39:45;;;;;;;12.52;5.68;;;230.90;1920.00;;;;;;4922124;29;20052;-77
2022/02/03 14:42:11;;;;;;;9.60;4.32;;;230.70;1920.00;;;;;;4922585;29;20035;-77
2022/02/03 14:44:39;;;;;;;;;;;230.60;1920.00;;;;;;4905803;29;20032;-75
2022/02/03 14:47:06;;;;;;;8.77;3.97;;;230.70;1920.00;;;;;;4921102;29;19930;-78
2022/02/03 14:49:32;;;;;;;9.88;3.88;;;230.60;1945.60;;;;;;4922249;29;20124;-78
2022/02/03 14:52:11;;;;;;;8.30;4.63;;;230.60;1971.20;;;;;;4921041;29;20091;-77
2022/02/03 15:00:09;;;;;;;9.63;4.28;;;230.60;1945.60;;;;;;4922532;29;20499;-78
2022/02/03 15:02:37;;;;;;;14.85;6.20;;;230.60;1945.60;;;;;;4922378;29;20051;-77
2022/02/03 15:05:09;;;;;;;9.82;4.70;;;230.40;1920.00;;;;;;4922239;29;20466;-75
2022/02/03 15:07:40;;;;;;;11.07;4.95;;;230.60;1920.00;;;;;;4922261;29;20500;-77
2022/02/03 15:10:28;;;;;;;9.27;4.45;;;205.70;1920.00;;;;;;4922670;29;20111;-75
2022/02/03 15:13:04;;;;;;;11.73;5.68;;;230.50;1920.00;;;;;;4922047;29;20035;-75
2022/02/03 15:15:30;;;;;;;15.25;5.97;;;230.50;1920.00;;;;;;4920855;29;20024;-81
2022/02/03 15:17:56;;;;;;;;;;;230.60;1945.60;;;;;;4922484;29;20039;-77
2022/02/03 15:20:23;;;;;;;14.52;5.07;;;230.40;1945.60;;;;;;4921820;29;20289;-77
2022/02/03 15:22:49;;;;;;;9.60;5.18;;;230.50;1971.20;;;;;;4922259;29;20040;-79
2022/02/03 15:25:14;;;;;;;;;;;230.50;1945.60;;;;;;4922295;29;20035;-78
2022/02/03 15:27:40;;;;;;;23.63;10.95;;;230.40;1945.60;;;;;;4922433;29;19930;-79
2022/02/03 15:30:06;;;;;;;;;;;230.40;1945.60;;;;;;4922365;29;20044;-76
2022/02/03 15:32:38;;;;;;;31.63;13.95;;;205.70;1971.20;;;;;;4922132;29;19955;-76
2022/02/03 15:35:13;;;;;;;39.88;16.90;;;205.60;1971.20;;;;;;4922259;29;20028;-78
2022/02/03 15:37:39;;;;;;;43.88;18.33;;;205.60;1971.20;;;;;;4904998;29;20025;-75
2022/02/03 15:40:11;;;;;;;;;;;205.70;1971.20;;;;;;4921207;29;20189;-77
2022/02/03 15:42:41;;;;;;;73.43;32.22;;;205.60;1971.20;;;;;;4922002;29;19911;-78
2022/02/03 15:45:08;;;;;;;61.20;27.38;;;205.70;1996.80;;;;;;4904989;29;20108;-75
2022/02/03 15:47:45;;;;;;;57.80;25.98;;;205.70;2022.40;;;;;;4904787;29;20087;-78
2022/02/03 15:50:42;;;;;;;77.25;32.15;;;205.50;2022.40;;;;;;4919043;29;20639;-74
2022/02/03 16:01:38;;;;;;;32.72;15.15;;;205.20;2073.60;;;;;;4918741;29;20090;-76
2022/02/03 16:17:27;;;;;;;16.27;9.02;;;179.90;2252.80;;;;;;4909534;29;20475;-77
2022/02/03 16:20:02;;;;;;;;;;;179.90;2252.80;;;;;;4909695;29;20020;-79
2022/02/03 16:22:42;;;;;;;16.42;6.90;;;179.90;2252.80;;;;;;4885602;29;20010;-82
2022/02/03 16:54:34;;;;;;;20.10;7.55;;;154.50;2252.80;;;;;;4899305;29;20031;-80
2022/02/03 16:57:04;;;;;;;;;;;179.30;2252.80;;;;;;4899613;29;20107;-76
2022/02/03 16:59:33;;;;;;;15.18;7.28;;;179.20;2252.80;;;;;;4898980;29;19911;-79
2022/02/03 17:01:58;;;;;;;26.27;7.88;;;154.40;2252.80;;;;;;4898614;29;20028;-79
2022/02/03 17:04:24;;;;;;;;;;;154.30;2252.80;;;;;;4895584;29;20028;-79
2022/02/03 17:06:50;;;;;;;16.33;7.65;;;154.40;2252.80;;;;;;4890534;29;19913;-79
2022/02/03 17:09:16;;;;;;;;;;;154.30;2252.80;;;;;;4907022;29;20036;-84
2022/02/03 17:11:41;;;;;;;21.48;6.10;;;154.40;2252.80;;;;;;4891876;29;20256;-81
2022/02/03 17:14:07;;;;;;;;;;;154.40;2252.80;;;;;;4908494;29;20095;-80
2022/02/03 17:16:33;;;;;;;25.98;6.40;;;154.30;2252.80;;;;;;4893188;29;19915;-79
2022/02/03 17:18:59;;;;;;;31.17;7.07;;;154.10;2252.80;;;;;;4907330;29;20110;-79
2022/02/03 17:21:28;;;;;;;;;;;154.20;2252.80;;;;;;4907072;29;20183;-76
2022/02/03 17:23:55;;;;;;;24.45;6.85;;;154.20;2252.80;;;;;;4901889;29;19946;-78
2022/02/03 17:26:37;;;;;;;12.45;6.20;;;154.20;2252.80;;;;;;4881648;29;20032;-76
2022/02/03 17:29:19;;;;;;;22.70;8.57;;;154.20;2252.80;;;;;;4898863;29;20119;-77
2022/02/03 18:17:31;;;;;;;77.15;37.72;;;128.70;2252.80;;;;;;4897967;29;20036;-78
2022/02/03 18:31:03;;;;;;;92.20;39.65;;;128.70;2252.80;;;;;;4849740;29;20539;-78
2022/02/03 18:36:44;;;;;;;108.07;51.80;;;128.80;2252.80;;;;;;4812302;29;20404;-79
2022/02/03 18:50:15;;;;;;;104.22;49.42;;;128.40;2252.80;;;;;;4811020;29;20172;-76
2022/02/03 18:53:06;;;;;;;84.53;40.53;;;128.40;2252.80;;;;;;4805849;29;20046;-78
2022/02/03 18:55:55;;;;;;;116.63;54.55;;;128.40;2252.80;;;;;;4803427;29;20045;-83
2022/02/03 18:58:38;;;;;;;92.10;41.33;;;128.30;2252.80;;;;;;4799364;29;20427;-78
2022/02/03 20:08:17;;;;;;;68.65;32.55;;;103.00;2227.20;;;;;;4919413;29;20074;-87
2022/02/03 20:10:47;;;;;;;75.15;32.70;;;103.10;2227.20;;;;;;4902658;29;20032;-82
2022/02/03 20:13:12;;;;;;;64.88;33.13;;;103.10;2227.20;;;;;;4918048;29;20044;-84
2022/02/03 20:15:40;;;;;;;71.85;32.33;;;103.10;2227.20;;;;;;4919102;29;20028;-85
2022/02/03 20:18:11;;;;;;;69.47;33.38;;;103.20;2227.20;;;;;;4919317;29;20035;-76
2022/02/03 20:20:37;;;;;;;61.15;28.27;;;103.30;2227.20;;;;;;4902115;29;20048;-76
2022/02/03 20:23:04;;;;;;;57.85;27.10;;;103.10;2227.20;;;;;;4902086;29;20024;-83
2022/02/03 20:25:30;;;;;;;59.17;27.58;;;102.90;2227.20;;;;;;4918967;29;20024;-81
2022/02/03 20:27:56;;;;;;;52.03;24.75;;;103.00;2227.20;;;;;;4906955;29;20029;-78
2022/02/03 20:30:22;;;;;;;50.17;24.80;;;102.90;2227.20;;;;;;4907500;29;20037;-77
2022/02/03 20:32:47;;;;;;;53.28;25.48;;;102.90;2227.20;;;;;;4906183;29;20501;-81
2022/02/03 20:35:13;;;;;;;;;;;103.00;2227.20;;;;;;4899431;29;20404;-82
2022/02/03 20:37:39;;;;;;;55.40;25.98;;;103.10;2227.20;;;;;;4899986;29;19962;-77
2022/02/03 20:40:05;;;;;;;;;;;103.10;2227.20;;;;;;4883224;29;20139;-76
2022/02/03 20:42:30;;;;;;;57.88;28.85;;;103.20;2227.20;;;;;;4883074;29;19915;-80
2022/02/03 20:44:56;;;;;;;;;;;102.60;2227.20;;;;;;4883191;29;20123;-79
2022/02/03 20:47:24;;;;;;;62.42;29.58;;;102.60;2227.20;;;;;;4899521;29;19907;-75
2022/02/03 20:49:50;;;;;;;64.95;29.45;;;102.40;2227.20;;;;;;4897824;29;20036;-83
2022/02/03 20:52:18;;;;;;;61.53;30.75;;;102.40;2227.20;;;;;;4899815;29;20029;-76
2022/02/03 20:54:45;;;;;;;54.97;28.77;;;102.60;2227.20;;;;;;4905679;29;20028;-79
2022/02/03 20:57:11;;;;;;;66.63;32.53;;;102.50;2227.20;;;;;;4890933;29;20063;-84
2022/02/03 20:59:56;;;;;;;;;;;102.40;2227.20;;;;;;4909594;29;20120;-76
2022/02/03 21:05:10;;;;;;;251.45;117.75;;;102.70;2227.20;;;;;;4917928;29;20035;-78
2022/02/03 21:07:36;;;;;;;242.63;113.13;;;102.90;2227.20;;;;;;4918167;29;20032;-77
2022/02/03 21:10:06;;;;;;;160.25;74.60;;;103.00;2227.20;;;;;;4901324;29;20438;-86
2022/02/03 21:12:32;;;;;;;75.20;36.72;;;103.10;2227.20;;;;;;4901568;29;20398;-85
2022/02/03 21:14:59;;;;;;;78.85;39.15;;;103.10;2227.20;;;;;;4901482;29;20032;-85
2022/02/03 21:17:29;;;;;;;93.40;44.75;;;103.10;2227.20;;;;;;4901454;29;20111;-86
2022/02/03 21:19:55;;;;;;;133.15;66.68;;;103.20;2227.20;;;;;;4900823;29;20046;-85
2022/02/03 21:22:21;;;;;;;;;;;103.20;2227.20;;;;;;4901246;29;20141;-85
2022/02/03 21:24:48;;;;;;;66.53;32.17;;;103.20;2227.20;;;;;;4901389;29;19950;-78
2022/02/03 21:27:18;;;;;;;69.80;34.72;;;103.00;2227.20;;;;;;4917824;29;20031;-75
2022/02/03 21:29:44;;;;;;;82.43;35.65;;;102.70;2227.20;;;;;;4917919;29;20028;-86
2022/02/03 21:32:11;;;;;;;70.75;33.80;;;102.70;2227.20;;;;;;4917536;29;20024;-76
2022/02/03 21:34:37;;;;;;;75.03;37.15;;;102.70;2227.20;;;;;;4900346;29;20056;-76
2022/02/03 21:37:03;;;;;;;73.63;35.50;;;102.40;2227.20;;;;;;4917659;29;20110;-84
2022/02/03 21:39:29;;;;;;;70.72;35.50;;;77.70;2227.20;;;;;;4900514;29;20127;-86
2022/02/03 21:41:54;;;;;;;;;;;102.50;2227.20;;;;;;4917840;29;20032;-75
2022/02/03 21:44:22;;;;;;;81.53;41.08;;;102.70;2227.20;;;;;;4917552;29;20316;-76
2022/02/03 21:46:48;;;;;;;79.80;37.88;;;102.80;2227.20;;;;;;4912923;29;20024;-86
2022/02/03 21:49:15;;;;;;;80.45;38.33;;;102.80;2227.20;;;;;;4906793;29;20537;-76
2022/02/03 21:51:44;;;;;;;83.80;39.83;;;102.70;2227.20;;;;;;4898233;29;20032;-76
2022/02/03 21:54:11;;;;;;;76.82;38.13;;;102.60;2227.20;;;;;;4919857;29;20029;-75
2022/02/03 21:56:37;;;;;;;83.97;38.75;;;102.50;2227.20;;;;;;4911158;29;20028;-75
2022/02/03 21:59:06;;;;;;;72.00;35.22;;;102.50;2227.20;;;;;;4905761;29;20039;-84
2022/02/03 22:01:34;;;;;;;71.10;34.03;;;102.50;2227.20;;;;;;4908380;29;20055;-75
2022/02/03 22:03:59;;;;;;;77.25;33.35;;;102.50;2227.20;;;;;;4908154;29;20017;-85
2022/02/03 22:06:25;;;;;;;59.42;29.67;;;102.50;2227.20;;;;;;4905669;29;20032;-79
2022/02/03 22:08:51;;;;;;;;;;;102.70;2227.20;;;;;;4908783;29;20496;-84
2022/02/03 22:11:16;;;;;;;51.20;26.50;;;102.80;2227.20;;;;;;4906173;29;19971;-77
2022/02/03 22:13:42;;;;;;;;;;;102.90;2227.20;;;;;;4893079;29;20025;-85
2022/02/03 22:16:11;;;;;;;42.35;21.05;;;103.00;2227.20;;;;;;4908549;29;19907;-75
2022/02/03 22:18:37;;;;;;;54.20;24.02;;;102.80;2227.20;;;;;;4911078;29;20020;-76
2022/02/03 22:21:15;;;;;;;39.83;20.33;;;102.80;2227.20;;;;;;4891953;29;20028;-76
2022/02/03 22:38:31;;;;;;;40.67;20.92;;;103.10;2227.20;;;;;;4906625;29;20304;-85
2022/02/03 22:45:13;;;;;;;31.13;15.13;;;103.30;2227.20;;;;;;4904975;29;20084;-75
2022/02/03 22:50:06;;;;;;;34.53;18.20;;;102.90;2227.20;;;;;;4911042;29;20043;-87
2022/02/03 22:52:32;;;;;;;39.55;17.67;;;102.70;2227.20;;;;;;4888666;29;20055;-75
2022/02/03 22:54:58;;;;;;;41.80;21.50;;;102.60;2227.20;;;;;;4891418;29;20509;-75
2022/02/03 22:57:24;;;;;;;;;;;102.50;2227.20;;;;;;4907154;29;20031;-85
2022/02/03 23:02:18;;;;;;;50.97;24.73;;;102.50;2227.20;;;;;;4908534;29;20063;-86
2022/02/03 23:04:44;;;;;;;46.00;23.13;;;77.70;2227.20;;;;;;4911114;29;20040;-78
2022/02/03 23:07:22;;;;;;;46.67;22.40;;;77.60;2227.20;;;;;;4909174;29;20036;-84
2022/02/03 23:10:11;;;;;;;49.83;24.48;;;77.60;2227.20;;;;;;4911908;29;20044;-86
2022/02/03 23:17:51;;;;;;;61.50;27.98;;;77.40;2227.20;;;;;;4912631;29;20448;-85
2022/02/03 23:20:24;;;;;;;69.45;28.23;;;77.40;2227.20;;;;;;4911481;29;20484;-78
2022/02/03 23:22:51;;;;;;;61.55;26.38;;;77.30;2227.20;;;;;;4910021;29;20036;-91
2022/02/03 23:25:19;;;;;;;67.43;29.85;;;77.30;2227.20;;;;;;4908974;29;20029;-92
2022/02/03 23:30:19;;;;;;;76.18;31.38;;;77.40;2227.20;;;;;;4911439;29;20172;-92
2022/02/03 23:32:45;;;;;;;71.25;31.05;;;77.40;2227.20;;;;;;4892388;29;20033;-88
2022/02/03 23:35:24;;;;;;;77.60;33.20;;;77.40;2227.20;;;;;;4894761;29;20024;-87
2022/02/03 23:38:00;;;;;;;68.70;31.02;;;77.30;2227.20;;;;;;4896251;29;20072;-90
2022/02/03 23:40:58;;;;;;;77.10;34.38;;;77.30;2227.20;;;;;;4915035;29;20136;-81
2022/02/03 23:46:27;;;;;;;70.75;32.45;;;77.40;2227.20;;;;;;4899738;29;20035;-88
